Terminal Aerodrome Forecast
Issued by NWS

Home | Current Version | Previous Version | Text Only | Print | Product List | Glossary On
Versions: 1 2 3 4 5 6 7 8 9 10 11 12 13
000
FTUS43 KDTX 260500
TAFMBS
TAF
KMBS 260520Z 2606/2706 21006KT P6SM SCT090 BKN150
     FM261400 21010KT P6SM SCT060 BKN120 PROB30 2615/2618 6SM SHRA
      BKN045
     FM262000 23011G19KT P6SM SCT045 BKN090
     FM270000 22006KT P6SM SCT040 BKN080=

USA.gov is the U.S. government's official web portal to all federal, state and local government web resources and services.